sensor_id;sensor_type;location;lat;lon;timestamp;pressure;altitude;pressure_sealevel;temperature;humidity
65685;BME280;52405;50.844;-1.062;2022-10-22T00:01:32;100499.22;;;16.73;74.93
65685;BME280;52405;50.844;-1.062;2022-10-22T00:03:58;100502.75;;;16.75;74.76
65685;BME280;52405;50.844;-1.062;2022-10-22T00:06:23;100502.75;;;16.75;75.43
65685;BME280;52405;50.844;-1.062;2022-10-22T00:08:49;100503.63;;;16.75;74.83
65685;BME280;52405;50.844;-1.062;2022-10-22T00:11:17;100512.34;;;16.76;74.98
65685;BME280;52405;50.844;-1.062;2022-10-22T00:13:44;100516.72;;;16.74;75.58
65685;BME280;52405;50.844;-1.062;2022-10-22T00:16:10;100516.72;;;16.74;74.95
65685;BME280;52405;50.844;-1.062;2022-10-22T00:18:36;100528.09;;;16.74;75.19
65685;BME280;52405;50.844;-1.062;2022-10-22T00:21:02;100529.81;;;16.74;75.32
65685;BME280;52405;50.844;-1.062;2022-10-22T00:23:27;100529.81;;;16.71;75.35
65685;BME280;52405;50.844;-1.062;2022-10-22T00:25:53;100542.06;;;16.73;75.01
65685;BME280;52405;50.844;-1.062;2022-10-22T00:28:19;100544.63;;;16.69;75.25
65685;BME280;52405;50.844;-1.062;2022-10-22T00:30:44;100549.06;;;16.73;75.44
65685;BME280;52405;50.844;-1.062;2022-10-22T00:33:10;100524.44;;;16.55;74.98
65685;BME280;52405;50.844;-1.062;2022-10-22T00:35:37;100551.66;;;16.71;74.69
65685;BME280;52405;50.844;-1.062;2022-10-22T00:38:03;100559.50;;;16.70;74.97
65685;BME280;52405;50.844;-1.062;2022-10-22T00:40:28;100556.84;;;16.67;74.27
65685;BME280;52405;50.844;-1.062;2022-10-22T00:42:54;100564.72;;;16.64;75.13
65685;BME280;52405;50.844;-1.062;2022-10-22T00:45:26;100563.81;;;16.60;74.87
65685;BME280;52405;50.844;-1.062;2022-10-22T00:48:01;100564.69;;;16.61;75.30
65685;BME280;52405;50.844;-1.062;2022-10-22T00:50:39;100576.03;;;16.60;74.58
65685;BME280;52405;50.844;-1.062;2022-10-22T00:53:10;100583.88;;;16.60;74.77
65685;BME280;52405;50.844;-1.062;2022-10-22T00:55:37;100567.19;;;16.48;74.90
65685;BME280;52405;50.844;-1.062;2022-10-22T00:58:03;100597.84;;;16.55;75.05
65685;BME280;52405;50.844;-1.062;2022-10-22T01:00:29;100590.84;;;16.53;75.36
65685;BME280;52405;50.844;-1.062;2022-10-22T01:02:55;100599.56;;;16.53;74.97
65685;BME280;52405;50.844;-1.062;2022-10-22T01:05:21;100596.97;;;16.53;74.60
65685;BME280;52405;50.844;-1.062;2022-10-22T01:07:50;100596.94;;;16.52;74.86
65685;BME280;52405;50.844;-1.062;2022-10-22T01:16:07;100612.56;;;16.38;75.09
65685;BME280;52405;50.844;-1.062;2022-10-22T01:21:41;100609.78;;;16.26;74.37
65685;BME280;52405;50.844;-1.062;2022-10-22T01:29:31;100635.06;;;16.17;74.59
65685;BME280;52405;50.844;-1.062;2022-10-22T01:32:11;100639.44;;;16.20;74.86
65685;BME280;52405;50.844;-1.062;2022-10-22T01:34:40;100645.53;;;16.19;74.27
65685;BME280;52405;50.844;-1.062;2022-10-22T01:37:09;100642.88;;;16.16;74.56
65685;BME280;52405;50.844;-1.062;2022-10-22T01:39:38;100651.63;;;16.16;73.88
65685;BME280;52405;50.844;-1.062;2022-10-22T01:42:04;100653.34;;;16.14;73.82
65685;BME280;52405;50.844;-1.062;2022-10-22T01:44:32;100653.31;;;16.13;73.97
65685;BME280;52405;50.844;-1.062;2022-10-22T01:49:34;100644.47;;;16.03;73.65
65685;BME280;52405;50.844;-1.062;2022-10-22T01:52:18;100664.66;;;16.10;73.41
65685;BME280;52405;50.844;-1.062;2022-10-22T01:57:40;100671.66;;;16.13;73.48
65685;BME280;52405;50.844;-1.062;2022-10-22T02:00:13;100676.03;;;16.15;73.35
65685;BME280;52405;50.844;-1.062;2022-10-22T02:03:12;100671.72;;;16.17;73.97
65685;BME280;52405;50.844;-1.062;2022-10-22T02:05:48;100669.97;;;16.16;73.34
65685;BME280;52405;50.844;-1.062;2022-10-22T02:08:22;100680.41;;;16.13;73.91
65685;BME280;52405;50.844;-1.062;2022-10-22T02:10:49;100687.34;;;16.11;73.80
65685;BME280;52405;50.844;-1.062;2022-10-22T02:13:23;100684.75;;;16.11;73.74
65685;BME280;52405;50.844;-1.062;2022-10-22T02:15:50;100687.34;;;16.11;73.24
65685;BME280;52405;50.844;-1.062;2022-10-22T02:18:19;100662.78;;;16.00;73.66
65685;BME280;52405;50.844;-1.062;2022-10-22T02:20:47;100702.25;;;16.15;73.48
65685;BME280;52405;50.844;-1.062;2022-10-22T02:23:13;100712.72;;;16.15;73.70
65685;BME280;52405;50.844;-1.062;2022-10-22T02:25:41;100705.75;;;16.14;73.30
65685;BME280;52405;50.844;-1.062;2022-10-22T02:28:35;100710.19;;;16.20;73.42
65685;BME280;52405;50.844;-1.062;2022-10-22T02:31:12;100710.13;;;16.17;73.06
65685;BME280;52405;50.844;-1.062;2022-10-22T02:33:44;100720.66;;;16.20;72.84
65685;BME280;52405;50.844;-1.062;2022-10-22T02:36:12;100725.91;;;16.20;72.42
65685;BME280;52405;50.844;-1.062;2022-10-22T02:38:40;100722.41;;;16.19;72.30
65685;BME280;52405;50.844;-1.062;2022-10-22T02:41:06;100725.00;;;16.18;73.11
65685;BME280;52405;50.844;-1.062;2022-10-22T02:43:39;100725.84;;;16.17;72.62
65685;BME280;52405;50.844;-1.062;2022-10-22T02:46:05;100734.59;;;16.16;72.78
65685;BME280;52405;50.844;-1.062;2022-10-22T02:48:31;100736.28;;;16.12;72.57
65685;BME280;52405;50.844;-1.062;2022-10-22T02:50:56;100717.81;;;16.02;72.45
65685;BME280;52405;50.844;-1.062;2022-10-22T02:53:21;100737.03;;;16.02;72.48
65685;BME280;52405;50.844;-1.062;2022-10-22T02:55:47;100735.16;;;15.93;71.91
65685;BME280;52405;50.844;-1.062;2022-10-22T02:58:12;100730.69;;;15.88;71.70
65685;BME280;52405;50.844;-1.062;2022-10-22T03:00:38;100747.25;;;15.84;71.80
65685;BME280;52405;50.844;-1.062;2022-10-22T03:03:04;100724.25;;;15.66;72.21
65685;BME280;52405;50.844;-1.062;2022-10-22T03:05:29;100730.34;;;15.65;72.15
65685;BME280;52405;50.844;-1.062;2022-10-22T03:07:54;100742.56;;;15.66;71.50
65685;BME280;52405;50.844;-1.062;2022-10-22T03:10:20;100745.97;;;15.60;71.52
65685;BME280;52405;50.844;-1.062;2022-10-22T03:12:45;100752.00;;;15.54;72.27
65685;BME280;52405;50.844;-1.062;2022-10-22T03:15:11;100757.22;;;15.51;71.61
65685;BME280;52405;50.844;-1.062;2022-10-22T03:17:36;100764.13;;;15.48;71.67
65685;BME280;52405;50.844;-1.062;2022-10-22T03:20:02;100761.41;;;15.43;72.31
65685;BME280;52405;50.844;-1.062;2022-10-22T03:22:30;100757.81;;;15.36;71.87
65685;BME280;52405;50.844;-1.062;2022-10-22T03:24:59;100730.41;;;15.13;72.34
65685;BME280;52405;50.844;-1.062;2022-10-22T03:27:27;100776.06;;;15.32;72.48
65685;BME280;52405;50.844;-1.062;2022-10-22T03:29:54;100782.97;;;15.28;72.26
65685;BME280;52405;50.844;-1.062;2022-10-22T03:32:21;100788.22;;;15.28;72.01
65685;BME280;52405;50.844;-1.062;2022-10-22T03:34:46;100792.53;;;15.26;72.35
65685;BME280;52405;50.844;-1.062;2022-10-22T03:37:12;100794.25;;;15.24;72.48
65685;BME280;52405;50.844;-1.062;2022-10-22T03:39:38;100796.81;;;15.21;72.69
65685;BME280;52405;50.844;-1.062;2022-10-22T03:42:06;100792.38;;;15.17;72.37
65685;BME280;52405;50.844;-1.062;2022-10-22T03:44:32;100802.88;;;15.20;72.48
65685;BME280;52405;50.844;-1.062;2022-10-22T03:46:59;100815.06;;;15.18;73.18
65685;BME280;52405;50.844;-1.062;2022-10-22T03:49:24;100813.31;;;15.17;72.44
65685;BME280;52405;50.844;-1.062;2022-10-22T03:51:50;100827.22;;;15.16;73.06
65685;BME280;52405;50.844;-1.062;2022-10-22T03:54:15;100810.59;;;15.12;72.87
65685;BME280;52405;50.844;-1.062;2022-10-22T03:56:41;100825.50;;;15.15;73.42
65685;BME280;52405;50.844;-1.062;2022-10-22T03:59:07;100834.22;;;15.15;73.33
65685;BME280;52405;50.844;-1.062;2022-10-22T04:01:32;100835.03;;;15.14;73.77
65685;BME280;52405;50.844;-1.062;2022-10-22T04:03:58;100835.03;;;15.14;73.24
65685;BME280;52405;50.844;-1.062;2022-10-22T04:06:23;100834.16;;;15.14;72.85
65685;BME280;52405;50.844;-1.062;2022-10-22T04:08:49;100816.56;;;15.03;73.14
65685;BME280;52405;50.844;-1.062;2022-10-22T04:11:15;100805.00;;;14.92;73.16
65685;BME280;52405;50.844;-1.062;2022-10-22T04:13:41;100844.56;;;15.09;72.95
65685;BME280;52405;50.844;-1.062;2022-10-22T04:16:18;100849.75;;;15.08;72.76
65685;BME280;52405;50.844;-1.062;2022-10-22T04:18:46;100845.34;;;15.05;72.42
65685;BME280;52405;50.844;-1.062;2022-10-22T04:21:13;100854.03;;;15.02;72.98
65685;BME280;52405;50.844;-1.062;2022-10-22T04:23:47;100853.09;;;15.00;72.76
65685;BME280;52405;50.844;-1.062;2022-10-22T04:26:14;100856.56;;;14.99;72.48
65685;BME280;52405;50.844;-1.062;2022-10-22T04:28:40;100859.97;;;14.95;72.08
65685;BME280;52405;50.844;-1.062;2022-10-22T04:31:11;100859.91;;;14.92;72.12
65685;BME280;52405;50.844;-1.062;2022-10-22T04:33:37;100872.97;;;14.92;73.11
65685;BME280;52405;50.844;-1.062;2022-10-22T04:36:14;100866.00;;;14.91;72.90
65685;BME280;52405;50.844;-1.062;2022-10-22T04:38:40;100878.16;;;14.89;73.21
65685;BME280;52405;50.844;-1.062;2022-10-22T04:41:11;100873.78;;;14.88;73.21
65685;BME280;52405;50.844;-1.062;2022-10-22T04:43:37;100875.47;;;14.86;72.63
65685;BME280;52405;50.844;-1.062;2022-10-22T04:46:03;100871.97;;;14.84;73.30
65685;BME280;52405;50.844;-1.062;2022-10-22T04:48:29;100881.44;;;14.79;73.23
65685;BME280;52405;50.844;-1.062;2022-10-22T04:50:56;100889.34;;;14.82;72.77
65685;BME280;52405;50.844;-1.062;2022-10-22T04:53:22;100888.44;;;14.80;73.07
65685;BME280;52405;50.844;-1.062;2022-10-22T04:55:47;100884.91;;;14.78;73.64
65685;BME280;52405;50.844;-1.062;2022-10-22T04:58:13;100897.19;;;14.82;73.37
65685;BME280;52405;50.844;-1.062;2022-10-22T05:00:38;100894.63;;;14.83;73.62
65685;BME280;52405;50.844;-1.062;2022-10-22T05:03:03;100893.81;;;14.88;72.98
65685;BME280;52405;50.844;-1.062;2022-10-22T05:05:29;100895.56;;;14.87;73.10
65685;BME280;52405;50.844;-1.062;2022-10-22T05:07:54;100902.66;;;14.93;73.57
65685;BME280;52405;50.844;-1.062;2022-10-22T05:10:20;100902.69;;;14.96;72.84
65685;BME280;52405;50.844;-1.062;2022-10-22T05:12:45;100913.16;;;14.96;73.39
65685;BME280;52405;50.844;-1.062;2022-10-22T05:15:11;100913.13;;;14.93;72.54
65685;BME280;52405;50.844;-1.062;2022-10-22T05:17:36;100915.84;;;14.99;72.65
65685;BME280;52405;50.844;-1.062;2022-10-22T05:20:03;100908.84;;;14.96;72.70
65685;BME280;52405;50.844;-1.062;2022-10-22T05:22:29;100919.41;;;15.02;73.19
65685;BME280;52405;50.844;-1.062;2022-10-22T05:24:55;100920.25;;;15.01;73.50
65685;BME280;52405;50.844;-1.062;2022-10-22T05:27:20;100924.56;;;14.99;73.26
65685;BME280;52405;50.844;-1.062;2022-10-22T05:29:46;100928.88;;;14.97;73.59
65685;BME280;52405;50.844;-1.062;2022-10-22T05:32:11;100923.63;;;14.94;72.83
65685;BME280;52405;50.844;-1.062;2022-10-22T05:34:37;100934.88;;;14.92;72.54
65685;BME280;52405;50.844;-1.062;2022-10-22T05:37:02;100940.03;;;14.89;72.87
65685;BME280;52405;50.844;-1.062;2022-10-22T05:39:28;100934.78;;;14.87;73.09
65685;BME280;52405;50.844;-1.062;2022-10-22T05:41:53;100933.88;;;14.85;73.14
65685;BME280;52405;50.844;-1.062;2022-10-22T05:44:19;100941.66;;;14.82;73.40
65685;BME280;52405;50.844;-1.062;2022-10-22T05:46:44;100918.66;;;14.67;73.25
65685;BME280;52405;50.844;-1.062;2022-10-22T05:49:12;100944.16;;;14.77;73.07
65685;BME280;52405;50.844;-1.062;2022-10-22T05:51:38;100951.06;;;14.75;73.84
65685;BME280;52405;50.844;-1.062;2022-10-22T05:54:06;100952.78;;;14.73;73.89
65685;BME280;52405;50.844;-1.062;2022-10-22T05:56:33;100902.34;;;14.41;73.86
65685;BME280;52405;50.844;-1.062;2022-10-22T05:58:59;100953.53;;;14.68;73.82
65685;BME280;52405;50.844;-1.062;2022-10-22T06:01:27;100956.97;;;14.67;74.32
65685;BME280;52405;50.844;-1.062;2022-10-22T06:03:53;100963.03;;;14.64;73.76
65685;BME280;52405;50.844;-1.062;2022-10-22T06:06:23;100969.97;;;14.62;74.40
65685;BME280;52405;50.844;-1.062;2022-10-22T06:08:51;100970.78;;;14.59;73.84
65685;BME280;52405;50.844;-1.062;2022-10-22T06:11:19;100975.97;;;14.58;74.43
65685;BME280;52405;50.844;-1.062;2022-10-22T06:13:45;100977.63;;;14.56;74.67
65685;BME280;52405;50.844;-1.062;2022-10-22T06:16:11;100981.03;;;14.53;74.59
65685;BME280;52405;50.844;-1.062;2022-10-22T06:18:36;100998.41;;;14.51;74.62
65685;BME280;52405;50.844;-1.062;2022-10-22T06:21:04;100999.19;;;14.47;74.26
65685;BME280;52405;50.844;-1.062;2022-10-22T06:23:30;100996.53;;;14.45;74.87
65685;BME280;52405;50.844;-1.062;2022-10-22T06:25:57;101007.81;;;14.43;75.02
65685;BME280;52405;50.844;-1.062;2022-10-22T06:28:23;100999.06;;;14.42;74.85
65685;BME280;52405;50.844;-1.062;2022-10-22T06:30:48;101016.44;;;14.40;74.95
65685;BME280;52405;50.844;-1.062;2022-10-22T06:33:14;101018.19;;;14.40;74.89
65685;BME280;52405;50.844;-1.062;2022-10-22T06:35:39;101013.78;;;14.39;75.06
65685;BME280;52405;50.844;-1.062;2022-10-22T06:38:04;101022.53;;;14.39;75.25
65685;BME280;52405;50.844;-1.062;2022-10-22T06:40:31;101019.03;;;14.39;75.30
65685;BME280;52405;50.844;-1.062;2022-10-22T06:43:00;101025.16;;;14.39;74.79
65685;BME280;52405;50.844;-1.062;2022-10-22T06:45:26;101027.75;;;14.39;75.36
65685;BME280;52405;50.844;-1.062;2022-10-22T06:47:51;101020.66;;;14.35;75.02
65685;BME280;52405;50.844;-1.062;2022-10-22T06:50:17;101021.50;;;14.33;74.71
65685;BME280;52405;50.844;-1.062;2022-10-22T06:52:43;101041.75;;;14.41;75.11
65685;BME280;52405;50.844;-1.062;2022-10-22T06:55:09;101040.06;;;14.43;75.45
65685;BME280;52405;50.844;-1.062;2022-10-22T06:57:34;101041.69;;;14.40;75.06
65685;BME280;52405;50.844;-1.062;2022-10-22T07:00:00;101040.84;;;14.41;75.33
65685;BME280;52405;50.844;-1.062;2022-10-22T07:02:25;101061.16;;;14.51;74.61
65685;BME280;52405;50.844;-1.062;2022-10-22T07:04:51;101068.16;;;14.52;74.49
65685;BME280;52405;50.844;-1.062;2022-10-22T07:07:16;101069.84;;;14.50;74.84
65685;BME280;52405;50.844;-1.062;2022-10-22T07:09:42;101071.72;;;14.56;75.07
65685;BME280;52405;50.844;-1.062;2022-10-22T07:12:11;101078.78;;;14.58;74.57
65685;BME280;52405;50.844;-1.062;2022-10-22T07:14:38;101077.97;;;14.59;74.89
65685;BME280;52405;50.844;-1.062;2022-10-22T07:17:03;101083.28;;;14.64;74.42
65685;BME280;52405;50.844;-1.062;2022-10-22T07:19:29;101069.13;;;14.56;74.70
65685;BME280;52405;50.844;-1.062;2022-10-22T07:21:55;101085.13;;;14.68;74.12
65685;BME280;52405;50.844;-1.062;2022-10-22T07:24:21;101089.56;;;14.71;74.56
65685;BME280;52405;50.844;-1.062;2022-10-22T07:26:46;101084.41;;;14.75;74.74
65685;BME280;52405;50.844;-1.062;2022-10-22T07:29:11;101081.13;;;14.82;74.72
65685;BME280;52405;50.844;-1.062;2022-10-22T07:31:39;101089.97;;;14.88;74.51
65685;BME280;52405;50.844;-1.062;2022-10-22T07:34:05;101094.41;;;14.92;74.44
65685;BME280;52405;50.844;-1.062;2022-10-22T07:36:31;101091.00;;;14.96;74.22
65685;BME280;52405;50.844;-1.062;2022-10-22T07:38:58;101092.88;;;15.00;73.71
65685;BME280;52405;50.844;-1.062;2022-10-22T07:41:24;101098.19;;;15.04;74.11
65685;BME280;52405;50.844;-1.062;2022-10-22T07:43:50;101105.28;;;15.10;73.23
65685;BME280;52405;50.844;-1.062;2022-10-22T07:46:16;101105.41;;;15.15;73.18
65685;BME280;52405;50.844;-1.062;2022-10-22T07:48:41;101111.63;;;15.20;73.46
65685;BME280;52405;50.844;-1.062;2022-10-22T07:51:07;101111.78;;;15.26;73.42
65685;BME280;52405;50.844;-1.062;2022-10-22T07:53:32;101114.59;;;15.35;73.61
65685;BME280;52405;50.844;-1.062;2022-10-22T07:55:58;101119.28;;;15.50;73.90
65685;BME280;52405;50.844;-1.062;2022-10-22T07:58:23;101117.94;;;15.69;73.62
65685;BME280;52405;50.844;-1.062;2022-10-22T08:00:50;101128.81;;;15.86;73.51
65685;BME280;52405;50.844;-1.062;2022-10-22T08:03:17;101125.69;;;16.06;73.75
65685;BME280;52405;50.844;-1.062;2022-10-22T08:05:43;101130.47;;;16.28;73.36
65685;BME280;52405;50.844;-1.062;2022-10-22T08:08:10;101127.38;;;16.49;72.93
65685;BME280;52405;50.844;-1.062;2022-10-22T08:10:36;101142.03;;;16.87;72.17
65685;BME280;52405;50.844;-1.062;2022-10-22T08:13:01;101127.78;;;17.24;71.92
65685;BME280;52405;50.844;-1.062;2022-10-22T08:15:27;101132.69;;;17.64;70.87
65685;BME280;52405;50.844;-1.062;2022-10-22T08:17:53;101135.66;;;17.87;69.52
65685;BME280;52405;50.844;-1.062;2022-10-22T08:20:19;101138.44;;;18.01;69.22
65685;BME280;52405;50.844;-1.062;2022-10-22T08:22:44;101149.91;;;18.07;68.39
65685;BME280;52405;50.844;-1.062;2022-10-22T08:25:11;101148.22;;;18.13;68.51
65685;BME280;52405;50.844;-1.062;2022-10-22T08:27:37;101157.00;;;18.18;67.95
65685;BME280;52405;50.844;-1.062;2022-10-22T08:30:04;101150.06;;;18.20;67.76
65685;BME280;52405;50.844;-1.062;2022-10-22T08:32:30;101161.56;;;18.34;67.35
65685;BME280;52405;50.844;-1.062;2022-10-22T08:34:56;101161.72;;;18.48;66.77
65685;BME280;52405;50.844;-1.062;2022-10-22T08:37:21;101162.75;;;18.65;66.24
65685;BME280;52405;50.844;-1.062;2022-10-22T08:39:47;101153.25;;;18.80;66.03
65685;BME280;52405;50.844;-1.062;2022-10-22T08:42:41;101160.50;;;19.05;65.16
65685;BME280;52405;50.844;-1.062;2022-10-22T08:45:23;101165.97;;;19.29;64.17
65685;BME280;52405;50.844;-1.062;2022-10-22T08:48:17;101171.38;;;19.55;64.04
65685;BME280;52405;50.844;-1.062;2022-10-22T08:50:49;101175.97;;;19.83;62.55
65685;BME280;52405;50.844;-1.062;2022-10-22T08:53:20;101162.81;;;19.91;62.16
65685;BME280;52405;50.844;-1.062;2022-10-22T08:55:46;101173.34;;;19.88;62.13
65685;BME280;52405;50.844;-1.062;2022-10-22T09:00:59;101168.13;;;20.05;61.61
65685;BME280;52405;50.844;-1.062;2022-10-22T09:06:21;101176.16;;;20.39;61.22
65685;BME280;52405;50.844;-1.062;2022-10-22T09:08:48;101177.94;;;20.52;61.11
65685;BME280;52405;50.844;-1.062;2022-10-22T09:13:47;101192.13;;;20.87;59.79
65685;BME280;52405;50.844;-1.062;2022-10-22T09:16:19;101188.56;;;21.06;59.06
65685;BME280;52405;50.844;-1.062;2022-10-22T09:19:08;101184.19;;;21.25;57.86
65685;BME280;52405;50.844;-1.062;2022-10-22T09:24:45;101185.03;;;21.41;57.72
65685;BME280;52405;50.844;-1.062;2022-10-22T09:27:17;101196.53;;;21.25;58.07
65685;BME280;52405;50.844;-1.062;2022-10-22T09:29:44;101194.75;;;21.21;58.69
65685;BME280;52405;50.844;-1.062;2022-10-22T09:32:10;101207.97;;;21.24;58.58
65685;BME280;52405;50.844;-1.062;2022-10-22T09:34:36;101191.22;;;21.18;58.14
65685;BME280;52405;50.844;-1.062;2022-10-22T09:37:05;101193.00;;;21.29;58.04
65685;BME280;52405;50.844;-1.062;2022-10-22T09:39:36;101198.22;;;21.41;57.64
65685;BME280;52405;50.844;-1.062;2022-10-22T09:42:02;101195.63;;;21.46;57.73
65685;BME280;52405;50.844;-1.062;2022-10-22T09:44:27;101198.22;;;21.41;56.93
65685;BME280;52405;50.844;-1.062;2022-10-22T09:46:53;101202.66;;;21.31;56.76
65685;BME280;52405;50.844;-1.062;2022-10-22T09:49:21;101207.09;;;21.22;57.03
65685;BME280;52405;50.844;-1.062;2022-10-22T09:51:53;101215.88;;;21.11;57.44
65685;BME280;52405;50.844;-1.062;2022-10-22T09:57:02;101210.63;;;21.08;57.93
65685;BME280;52405;50.844;-1.062;2022-10-22T09:59:32;101210.63;;;21.07;57.80
65685;BME280;52405;50.844;-1.062;2022-10-22T10:04:35;101217.66;;;21.03;57.98
65685;BME280;52405;50.844;-1.062;2022-10-22T10:07:15;101215.88;;;21.04;57.99
65685;BME280;52405;50.844;-1.062;2022-10-22T10:09:40;101220.28;;;21.12;58.54
65685;BME280;52405;50.844;-1.062;2022-10-22T10:12:14;101218.50;;;21.31;57.82
65685;BME280;52405;50.844;-1.062;2022-10-22T10:20:33;101219.31;;;21.92;55.38
65685;BME280;52405;50.844;-1.062;2022-10-22T10:28:54;101226.84;;;22.83;53.96
65685;BME280;52405;50.844;-1.062;2022-10-22T10:31:44;101225.06;;;22.80;52.91
65685;BME280;52405;50.844;-1.062;2022-10-22T10:34:32;101220.59;;;22.88;52.79
65685;BME280;52405;50.844;-1.062;2022-10-22T10:37:01;101227.63;;;22.93;53.08
65685;BME280;52405;50.844;-1.062;2022-10-22T10:39:34;101232.00;;;22.98;53.51
65685;BME280;52405;50.844;-1.062;2022-10-22T10:56:20;101217.34;;;22.48;53.26
65685;BME280;52405;50.844;-1.062;2022-10-22T10:58:54;101219.88;;;22.66;53.66
65685;BME280;52405;50.844;-1.062;2022-10-22T11:04:20;101216.13;;;22.94;53.08
65685;BME280;52405;50.844;-1.062;2022-10-22T11:06:41;101218.84;;;22.87;52.39
65685;BME280;52405;50.844;-1.062;2022-10-22T11:09:21;101222.41;;;22.80;52.74
65685;BME280;52405;50.844;-1.062;2022-10-22T11:12:01;101219.81;;;22.76;52.80
65685;BME280;52405;50.844;-1.062;2022-10-22T11:14:32;101227.78;;;22.73;53.33
65685;BME280;52405;50.844;-1.062;2022-10-22T11:17:13;101225.19;;;22.63;52.98
65685;BME280;52405;50.844;-1.062;2022-10-22T11:19:51;101227.06;;;22.41;53.87
65685;BME280;52405;50.844;-1.062;2022-10-22T11:22:44;101226.31;;;22.13;53.74
65685;BME280;52405;50.844;-1.062;2022-10-22T11:30:23;101245.81;;;21.44;55.12
65685;BME280;52405;50.844;-1.062;2022-10-22T11:32:57;101240.53;;;21.27;55.02
65685;BME280;52405;50.844;-1.062;2022-10-22T11:35:31;101239.66;;;21.17;55.65
65685;BME280;52405;50.844;-1.062;2022-10-22T11:37:58;101243.16;;;21.04;56.38
65685;BME280;52405;50.844;-1.062;2022-10-22T11:43:08;101222.00;;;20.69;57.19
65685;BME280;52405;50.844;-1.062;2022-10-22T11:45:41;101236.97;;;20.73;57.50
65685;BME280;52405;50.844;-1.062;2022-10-22T11:55:44;101221.91;;;20.49;59.91
65685;BME280;52405;50.844;-1.062;2022-10-22T12:08:42;101224.53;;;20.39;60.22
65685;BME280;52405;50.844;-1.062;2022-10-22T12:16:41;101227.97;;;20.17;60.99
65685;BME280;52405;50.844;-1.062;2022-10-22T12:21:42;101218.25;;;20.08;61.04
65685;BME280;52405;50.844;-1.062;2022-10-22T12:24:13;101220.03;;;20.08;61.40
65685;BME280;52405;50.844;-1.062;2022-10-22T12:26:40;101218.25;;;20.07;61.29
65685;BME280;52405;50.844;-1.062;2022-10-22T12:29:10;101213.00;;;20.08;60.90
65685;BME280;52405;50.844;-1.062;2022-10-22T12:31:38;101212.13;;;20.09;61.47
65685;BME280;52405;50.844;-1.062;2022-10-22T12:34:04;101208.69;;;20.26;61.45
65685;BME280;52405;50.844;-1.062;2022-10-22T12:36:33;101207.84;;;20.40;61.20
65685;BME280;52405;50.844;-1.062;2022-10-22T12:39:01;101206.97;;;20.51;61.04
65685;BME280;52405;50.844;-1.062;2022-10-22T12:41:34;101206.97;;;20.58;60.60
65685;BME280;52405;50.844;-1.062;2022-10-22T12:44:02;101214.91;;;20.58;60.32
65685;BME280;52405;50.844;-1.062;2022-10-22T12:46:30;101214.00;;;20.56;60.69
65685;BME280;52405;50.844;-1.062;2022-10-22T12:49:01;101214.00;;;20.47;60.46
65685;BME280;52405;50.844;-1.062;2022-10-22T12:51:27;101217.50;;;20.38;60.19
65685;BME280;52405;50.844;-1.062;2022-10-22T12:53:55;101216.59;;;20.30;60.72
65685;BME280;52405;50.844;-1.062;2022-10-22T12:56:24;101195.44;;;20.18;60.59
65685;BME280;52405;50.844;-1.062;2022-10-22T13:01:42;101198.13;;;20.24;60.98
65685;BME280;52405;50.844;-1.062;2022-10-22T13:12:04;101206.03;;;20.26;61.45
65685;BME280;52405;50.844;-1.062;2022-10-22T13:14:32;101193.69;;;20.23;61.06
65685;BME280;52405;50.844;-1.062;2022-10-22T13:22:37;101184.03;;;20.25;60.99
65685;BME280;52405;50.844;-1.062;2022-10-22T13:27:45;101193.69;;;20.15;60.91
65685;BME280;52405;50.844;-1.062;2022-10-22T13:30:21;101204.19;;;20.06;61.58
65685;BME280;52405;50.844;-1.062;2022-10-22T13:33:02;101209.44;;;19.97;61.77
65685;BME280;52405;50.844;-1.062;2022-10-22T13:35:35;101200.59;;;19.87;61.88
65685;BME280;52405;50.844;-1.062;2022-10-22T13:38:02;101204.94;;;19.80;62.46
65685;BME280;52405;50.844;-1.062;2022-10-22T13:40:28;101204.94;;;19.80;62.74
65685;BME280;52405;50.844;-1.062;2022-10-22T13:42:53;101210.13;;;19.71;62.50
65685;BME280;52405;50.844;-1.062;2022-10-22T13:45:19;101205.75;;;19.69;62.78
65685;BME280;52405;50.844;-1.062;2022-10-22T13:47:48;101219.75;;;19.61;62.71
65685;BME280;52405;50.844;-1.062;2022-10-22T13:50:17;101219.69;;;19.55;63.10
65685;BME280;52405;50.844;-1.062;2022-10-22T13:52:46;101213.53;;;19.53;63.36
65685;BME280;52405;50.844;-1.062;2022-10-22T13:55:21;101210.00;;;19.51;63.55
65685;BME280;52405;50.844;-1.062;2022-10-22T13:57:50;101217.91;;;19.47;64.10
65685;BME280;52405;50.844;-1.062;2022-10-22T14:00:18;101220.50;;;19.45;64.41
65685;BME280;52405;50.844;-1.062;2022-10-22T14:02:46;101198.47;;;19.35;64.61
65685;BME280;52405;50.844;-1.062;2022-10-22T14:05:15;101197.59;;;19.33;65.16
65685;BME280;52405;50.844;-1.062;2022-10-22T14:07:41;101204.66;;;19.39;65.26
65685;BME280;52405;50.844;-1.062;2022-10-22T14:10:19;101203.78;;;19.40;65.45
65685;BME280;52405;50.844;-1.062;2022-10-22T14:12:46;101198.56;;;19.43;65.38
65685;BME280;52405;50.844;-1.062;2022-10-22T14:15:13;101189.75;;;19.39;65.21
65685;BME280;52405;50.844;-1.062;2022-10-22T14:17:41;101189.75;;;19.44;64.97
65685;BME280;52405;50.844;-1.062;2022-10-22T14:20:28;101187.13;;;19.41;65.70
65685;BME280;52405;50.844;-1.062;2022-10-22T14:22:55;101173.91;;;19.36;66.24
65685;BME280;52405;50.844;-1.062;2022-10-22T14:25:24;101176.50;;;19.33;66.62
65685;BME280;52405;50.844;-1.062;2022-10-22T14:27:50;101179.13;;;19.32;66.66
65685;BME280;52405;50.844;-1.062;2022-10-22T14:30:23;101179.16;;;19.30;67.03
65685;BME280;52405;50.844;-1.062;2022-10-22T14:32:50;101183.50;;;19.25;66.74
65685;BME280;52405;50.844;-1.062;2022-10-22T14:35:18;101172.03;;;19.18;66.97
65685;BME280;52405;50.844;-1.062;2022-10-22T14:37:44;101172.88;;;19.14;67.09
65685;BME280;52405;50.844;-1.062;2022-10-22T14:40:13;101168.44;;;19.09;67.39
65685;BME280;52405;50.844;-1.062;2022-10-22T14:42:42;101162.25;;;19.02;67.33
65685;BME280;52405;50.844;-1.062;2022-10-22T14:45:28;101171.91;;;19.03;67.46